Time;durP1;ratioP1;P1;durP2;ratioP2;P2;SDS_P1;SDS_P2;PMS_P1;PMS_P2;Temp;Humidity;BMP_temperature;BMP_pressure;BME280_temperature;BME280_humidity;BME280_pressure;Samples;Min_cycle;Max_cycle;Signal;HPM_P1;HPM_P2
2023/06/09 00:00:56;;;;;;;7.13;6.30;;;;;;;;;;5096214;28;20016;-65
2023/06/09 00:03:21;;;;;;;7.65;6.47;;;;;;;;;;5099868;28;20027;-65
2023/06/09 00:05:48;;;;;;;7.95;6.55;;;;;;;;;;5098038;28;20020;-65
2023/06/09 00:08:13;;;;;;;9.45;6.10;;;;;;;;;;5101335;28;20028;-65
2023/06/09 00:10:38;;;;;;;7.75;6.55;;;;;;;;;;5097154;28;20038;-65
2023/06/09 00:13:04;;;;;;;11.30;6.83;;;;;;;;;;5100969;28;20081;-65
2023/06/09 00:15:29;;;;;;;10.35;5.90;;;;;;;;;;5103892;28;20768;-65
2023/06/09 00:17:55;;;;;;;19.45;7.55;;;;;;;;;;5103798;28;20488;-65
2023/06/09 00:20:20;;;;;;;9.85;7.15;;;;;;;;;;5096868;28;20088;-65
2023/06/09 00:22:48;;;;;;;7.47;6.15;;;;;;;;;;5098898;28;20031;-65
2023/06/09 00:25:14;;;;;;;14.15;6.78;;;;;;;;;;5107103;28;20044;-65
2023/06/09 00:27:40;;;;;;;12.50;6.70;;;;;;;;;;5109238;28;20066;-65
2023/06/09 00:30:07;;;;;;;8.02;6.40;;;;;;;;;;5097033;28;20446;-64
2023/06/09 00:32:32;;;;;;;8.35;6.43;;;;;;;;;;5100738;28;20102;-64
2023/06/09 00:34:57;;;;;;;7.63;5.93;;;;;;;;;;5100159;28;20102;-64
2023/06/09 00:37:22;;;;;;;9.13;6.53;;;;;;;;;;5098624;28;20280;-64
2023/06/09 00:39:48;;;;;;;7.88;6.32;;;;;;;;;;5109836;28;20323;-64
2023/06/09 00:42:13;;;;;;;8.13;6.27;;;;;;;;;;5105391;28;20029;-64
2023/06/09 00:44:38;;;;;;;9.93;7.07;;;;;;;;;;5102042;28;20724;-65
2023/06/09 00:47:06;;;;;;;10.35;6.90;;;;;;;;;;5106800;28;20281;-65
2023/06/09 00:49:32;;;;;;;9.52;6.63;;;;;;;;;;5102478;28;20035;-64
2023/06/09 00:51:57;;;;;;;7.40;5.97;;;;;;;;;;5106055;28;20028;-65
2023/06/09 00:54:22;;;;;;;9.20;5.80;;;;;;;;;;5101820;28;20423;-65
2023/06/09 00:56:48;;;;;;;7.75;6.53;;;;;;;;;;5105991;28;20039;-65
2023/06/09 00:59:13;;;;;;;7.35;6.38;;;;;;;;;;5101529;28;20024;-64
2023/06/09 01:01:40;;;;;;;7.70;6.75;;;;;;;;;;5105611;28;20024;-65
2023/06/09 01:04:05;;;;;;;18.17;7.55;;;;;;;;;;5101253;28;20020;-65
2023/06/09 01:06:31;;;;;;;12.93;7.45;;;;;;;;;;5107003;28;20501;-64
2023/06/09 01:09:04;;;;;;;10.13;7.40;;;;;;;;;;5102234;28;20050;-65
2023/06/09 01:11:33;;;;;;;8.75;6.45;;;;;;;;;;5105140;28;20768;-65
2023/06/09 01:14:20;;;;;;;9.98;7.18;;;;;;;;;;5103681;28;20028;-65
2023/06/09 01:16:47;;;;;;;10.07;7.10;;;;;;;;;;5107524;28;20028;-65
2023/06/09 01:19:20;;;;;;;11.10;8.02;;;;;;;;;;5098979;28;20019;-64
2023/06/09 01:21:48;;;;;;;9.73;7.90;;;;;;;;;;5103858;28;20024;-64
2023/06/09 01:24:32;;;;;;;8.38;7.43;;;;;;;;;;5107103;28;20026;-65
2023/06/09 01:27:02;;;;;;;8.87;7.40;;;;;;;;;;5104011;28;20027;-65
2023/06/09 01:29:28;;;;;;;11.07;7.65;;;;;;;;;;5106787;28;20114;-64
2023/06/09 01:31:54;;;;;;;10.18;7.72;;;;;;;;;;5104806;28;20058;-65
2023/06/09 01:34:20;;;;;;;12.73;8.45;;;;;;;;;;5110958;28;20023;-65
2023/06/09 01:36:45;;;;;;;10.57;8.05;;;;;;;;;;5104823;28;20148;-65
2023/06/09 01:39:11;;;;;;;10.05;7.53;;;;;;;;;;5107693;28;20608;-64
2023/06/09 01:41:36;;;;;;;9.90;7.88;;;;;;;;;;5111809;28;20116;-64
2023/06/09 01:44:02;;;;;;;11.88;8.05;;;;;;;;;;5094312;28;20016;-64
2023/06/09 01:46:27;;;;;;;11.63;9.57;;;;;;;;;;5102352;28;20536;-64
2023/06/09 01:48:53;;;;;;;13.27;9.75;;;;;;;;;;5109948;28;20023;-64
2023/06/09 01:51:26;;;;;;;12.07;9.93;;;;;;;;;;5108271;28;20429;-64
2023/06/09 01:53:53;;;;;;;13.17;10.17;;;;;;;;;;5099466;28;20389;-64
2023/06/09 01:56:28;;;;;;;12.93;10.60;;;;;;;;;;5091775;28;20028;-64
2023/06/09 01:58:53;;;;;;;;;;;;;;;;;;5111538;28;20031;-64
2023/06/09 02:01:18;;;;;;;13.25;10.35;;;;;;;;;;5094927;28;19961;-64
2023/06/09 02:03:44;;;;;;;12.98;10.57;;;;;;;;;;5093089;28;20044;-64
2023/06/09 02:06:10;;;;;;;13.70;11.02;;;;;;;;;;5102027;28;20483;-64
2023/06/09 02:08:37;;;;;;;13.57;11.40;;;;;;;;;;5109092;28;20028;-65
2023/06/09 02:11:02;;;;;;;15.98;11.73;;;;;;;;;;5091709;28;20016;-64
2023/06/09 02:13:28;;;;;;;13.05;10.73;;;;;;;;;;5104761;28;20039;-64
2023/06/09 02:15:53;;;;;;;12.47;11.17;;;;;;;;;;5111436;28;20525;-64
2023/06/09 02:18:21;;;;;;;15.85;11.75;;;;;;;;;;5108599;28;20674;-64
2023/06/09 02:20:46;;;;;;;13.30;11.57;;;;;;;;;;5099132;28;20032;-65
2023/06/09 02:23:12;;;;;;;16.90;11.93;;;;;;;;;;5110863;28;20485;-65
2023/06/09 02:25:37;;;;;;;13.82;11.55;;;;;;;;;;5110182;28;20012;-65
2023/06/09 02:28:04;;;;;;;14.15;11.38;;;;;;;;;;5110878;28;20035;-64
2023/06/09 02:30:29;;;;;;;15.23;11.40;;;;;;;;;;5109866;28;20016;-65
2023/06/09 02:32:55;;;;;;;15.95;11.57;;;;;;;;;;5110562;28;20114;-64
2023/06/09 02:35:20;;;;;;;13.82;11.48;;;;;;;;;;5109084;28;20070;-65
2023/06/09 02:37:46;;;;;;;19.85;12.93;;;;;;;;;;5110720;28;20031;-64
2023/06/09 02:40:11;;;;;;;15.60;11.82;;;;;;;;;;5110379;28;20076;-65
2023/06/09 02:42:36;;;;;;;13.10;11.05;;;;;;;;;;5092969;28;20073;-65
2023/06/09 02:45:02;;;;;;;14.02;10.25;;;;;;;;;;5091999;28;20024;-65
2023/06/09 02:47:28;;;;;;;15.85;10.50;;;;;;;;;;5104562;28;20024;-65
2023/06/09 02:49:53;;;;;;;12.67;11.40;;;;;;;;;;5094241;28;20525;-65
2023/06/09 02:52:20;;;;;;;13.37;10.50;;;;;;;;;;5095257;28;20365;-65
2023/06/09 02:54:45;;;;;;;13.55;10.93;;;;;;;;;;5093419;28;20290;-65
2023/06/09 02:57:10;;;;;;;15.67;10.87;;;;;;;;;;5098940;28;20540;-65
2023/06/09 02:59:36;;;;;;;13.15;11.73;;;;;;;;;;5096865;28;20598;-65
2023/06/09 03:02:01;;;;;;;12.98;11.15;;;;;;;;;;5103480;28;20024;-65
2023/06/09 03:04:26;;;;;;;13.77;12.30;;;;;;;;;;5090170;28;20039;-65
2023/06/09 03:06:53;;;;;;;13.77;11.60;;;;;;;;;;5093125;28;20293;-65
2023/06/09 03:09:18;;;;;;;16.73;13.15;;;;;;;;;;5106689;28;20055;-65
2023/06/09 03:11:44;;;;;;;17.98;13.20;;;;;;;;;;5092967;28;20486;-66
2023/06/09 03:14:09;;;;;;;23.05;12.77;;;;;;;;;;5094208;28;20394;-65
2023/06/09 03:16:34;;;;;;;16.90;14.30;;;;;;;;;;5100728;28;20098;-64
2023/06/09 03:19:00;;;;;;;20.25;14.20;;;;;;;;;;5112590;28;20333;-65
2023/06/09 03:21:25;;;;;;;14.68;13.18;;;;;;;;;;5114078;28;20101;-65
2023/06/09 03:23:51;;;;;;;15.07;12.85;;;;;;;;;;5112147;28;20102;-65
2023/06/09 03:26:17;;;;;;;17.92;12.10;;;;;;;;;;5113114;28;20039;-65
2023/06/09 03:28:43;;;;;;;15.23;13.63;;;;;;;;;;5111938;28;20023;-65
2023/06/09 03:31:08;;;;;;;17.30;12.93;;;;;;;;;;5093575;28;20077;-65
2023/06/09 03:33:33;;;;;;;14.75;13.30;;;;;;;;;;5094634;28;20038;-65
2023/06/09 03:35:59;;;;;;;18.50;14.10;;;;;;;;;;5114207;28;20084;-65
2023/06/09 03:38:24;;;;;;;15.32;13.73;;;;;;;;;;5113794;28;20098;-65
2023/06/09 03:40:49;;;;;;;18.10;12.90;;;;;;;;;;5114411;28;20023;-64
2023/06/09 03:43:15;;;;;;;18.75;14.80;;;;;;;;;;5111513;28;20484;-65
2023/06/09 03:45:40;;;;;;;18.50;13.80;;;;;;;;;;5095371;28;20111;-64
2023/06/09 03:48:06;;;;;;;17.33;13.77;;;;;;;;;;5093847;28;20501;-65
2023/06/09 03:50:31;;;;;;;17.17;14.52;;;;;;;;;;5097535;28;20643;-65
2023/06/09 03:52:57;;;;;;;19.23;13.68;;;;;;;;;;5114000;28;20034;-65
2023/06/09 03:55:24;;;;;;;31.52;13.57;;;;;;;;;;5113466;28;20031;-65
2023/06/09 03:57:49;;;;;;;13.90;12.30;;;;;;;;;;5113841;28;20099;-65
2023/06/09 04:00:15;;;;;;;14.15;12.75;;;;;;;;;;5093814;28;20095;-65
2023/06/09 04:02:41;;;;;;;15.73;13.32;;;;;;;;;;5093435;28;20106;-65
2023/06/09 04:05:06;;;;;;;18.20;12.15;;;;;;;;;;5092994;28;20730;-65
2023/06/09 04:07:32;;;;;;;17.02;12.52;;;;;;;;;;5105193;28;20031;-65
2023/06/09 04:09:57;;;;;;;14.32;12.45;;;;;;;;;;5110005;28;20058;-65
2023/06/09 04:12:22;;;;;;;22.17;13.65;;;;;;;;;;5112830;28;20440;-65
2023/06/09 04:14:48;;;;;;;15.53;13.37;;;;;;;;;;5094297;28;20097;-65
2023/06/09 04:17:13;;;;;;;20.15;13.02;;;;;;;;;;5112914;28;20269;-65
2023/06/09 04:19:38;;;;;;;16.98;12.88;;;;;;;;;;5112196;28;20033;-65
2023/06/09 04:22:07;;;;;;;13.67;12.27;;;;;;;;;;5113439;28;20032;-65
2023/06/09 04:24:32;;;;;;;13.55;12.13;;;;;;;;;;5105433;28;20282;-65
2023/06/09 04:26:58;;;;;;;25.20;12.85;;;;;;;;;;5093007;28;20028;-65
2023/06/09 04:29:25;;;;;;;15.05;13.38;;;;;;;;;;5093216;28;20020;-65
2023/06/09 04:31:58;;;;;;;14.35;12.45;;;;;;;;;;5092269;28;20425;-65
2023/06/09 04:34:25;;;;;;;15.07;12.68;;;;;;;;;;5092288;28;20036;-65
2023/06/09 04:36:52;;;;;;;20.83;13.30;;;;;;;;;;5092542;28;20040;-65
2023/06/09 04:39:18;;;;;;;19.50;13.30;;;;;;;;;;5099247;28;20478;-65
2023/06/09 04:41:44;;;;;;;15.75;13.52;;;;;;;;;;5111995;28;20023;-65
2023/06/09 04:44:09;;;;;;;17.70;13.50;;;;;;;;;;5097066;28;20038;-65
2023/06/09 04:46:37;;;;;;;16.25;13.77;;;;;;;;;;5095123;28;20028;-65
2023/06/09 04:49:08;;;;;;;15.32;12.82;;;;;;;;;;5099845;28;20031;-65
2023/06/09 04:51:41;;;;;;;14.00;12.63;;;;;;;;;;5109637;28;20032;-65
2023/06/09 04:54:07;;;;;;;15.55;13.02;;;;;;;;;;5100177;28;20038;-65
2023/06/09 04:56:32;;;;;;;16.10;12.68;;;;;;;;;;5110773;28;20024;-65
2023/06/09 04:58:58;;;;;;;16.90;14.23;;;;;;;;;;5110415;28;20020;-65
2023/06/09 05:01:23;;;;;;;21.23;14.85;;;;;;;;;;5109171;28;20081;-65
2023/06/09 05:03:48;;;;;;;17.20;13.40;;;;;;;;;;5110638;28;20438;-65
2023/06/09 05:06:13;;;;;;;17.55;13.57;;;;;;;;;;5103783;28;20354;-64
2023/06/09 05:08:42;;;;;;;18.42;13.70;;;;;;;;;;5111427;28;20020;-65
2023/06/09 05:11:07;;;;;;;16.50;13.80;;;;;;;;;;5097305;28;20024;-64
2023/06/09 05:13:32;;;;;;;16.40;14.40;;;;;;;;;;5103151;28;20076;-64
2023/06/09 05:15:59;;;;;;;17.07;14.33;;;;;;;;;;5096951;28;20285;-64
2023/06/09 05:18:26;;;;;;;15.32;12.75;;;;;;;;;;5103395;28;20357;-65
2023/06/09 05:20:51;;;;;;;14.55;12.98;;;;;;;;;;5097366;28;20081;-64
2023/06/09 05:23:17;;;;;;;15.68;12.52;;;;;;;;;;5098963;28;20011;-64
2023/06/09 05:25:42;;;;;;;18.35;13.77;;;;;;;;;;5103066;28;20035;-64
2023/06/09 05:28:08;;;;;;;18.10;13.52;;;;;;;;;;5097361;28;20016;-64
2023/06/09 05:30:33;;;;;;;16.07;12.57;;;;;;;;;;5093974;28;20020;-64
2023/06/09 05:32:58;;;;;;;14.57;11.77;;;;;;;;;;5095351;28;20829;-64
2023/06/09 05:35:23;;;;;;;19.70;12.77;;;;;;;;;;5104018;28;20386;-64
2023/06/09 05:37:52;;;;;;;13.43;11.83;;;;;;;;;;5094329;28;20274;-64
2023/06/09 05:40:17;;;;;;;12.85;11.55;;;;;;;;;;5105014;28;20288;-64
2023/06/09 05:42:42;;;;;;;17.67;12.20;;;;;;;;;;5091999;28;20031;-64
2023/06/09 05:45:08;;;;;;;15.13;11.27;;;;;;;;;;5090521;28;20278;-64
2023/06/09 05:47:33;;;;;;;18.65;12.15;;;;;;;;;;5091793;28;20889;-64
2023/06/09 05:49:59;;;;;;;13.77;12.30;;;;;;;;;;5092151;28;20031;-64
2023/06/09 05:52:24;;;;;;;13.80;11.45;;;;;;;;;;5106375;28;20443;-64
2023/06/09 05:54:49;;;;;;;12.60;11.23;;;;;;;;;;5092819;28;20032;-64
2023/06/09 05:57:15;;;;;;;13.88;11.68;;;;;;;;;;5094286;28;20410;-65
2023/06/09 05:59:41;;;;;;;16.67;13.15;;;;;;;;;;5103369;28;20031;-64
2023/06/09 06:02:06;;;;;;;16.52;13.27;;;;;;;;;;5093257;28;20031;-64
2023/06/09 06:04:31;;;;;;;14.83;12.00;;;;;;;;;;5104520;28;20032;-65
2023/06/09 06:06:57;;;;;;;13.23;11.82;;;;;;;;;;5106241;28;20365;-64
2023/06/09 06:09:22;;;;;;;13.23;10.77;;;;;;;;;;5092568;28;20028;-65
2023/06/09 06:11:48;;;;;;;18.42;11.32;;;;;;;;;;5098792;28;20031;-64
2023/06/09 06:14:13;;;;;;;13.95;10.95;;;;;;;;;;5099050;28;20028;-64
2023/06/09 06:16:38;;;;;;;14.98;10.95;;;;;;;;;;5094312;28;20068;-64
2023/06/09 06:19:03;;;;;;;14.20;11.40;;;;;;;;;;5091829;28;20086;-64
2023/06/09 06:21:29;;;;;;;17.85;12.35;;;;;;;;;;5110093;28;20097;-64
2023/06/09 06:23:54;;;;;;;12.40;10.30;;;;;;;;;;5099041;28;20020;-64
2023/06/09 06:26:19;;;;;;;14.27;10.23;;;;;;;;;;5103390;28;20301;-65
2023/06/09 06:28:45;;;;;;;11.32;10.13;;;;;;;;;;5104568;28;20043;-65
2023/06/09 06:31:10;;;;;;;13.70;11.10;;;;;;;;;;5104714;28;20465;-64
2023/06/09 06:33:35;;;;;;;11.98;10.23;;;;;;;;;;5104169;28;20370;-64
2023/06/09 06:36:01;;;;;;;15.48;9.82;;;;;;;;;;5104401;28;20068;-64
2023/06/09 06:38:26;;;;;;;11.85;9.43;;;;;;;;;;5101401;28;20039;-64
2023/06/09 06:40:51;;;;;;;17.47;9.30;;;;;;;;;;5110682;28;20016;-64
2023/06/09 06:43:17;;;;;;;12.07;9.13;;;;;;;;;;5113587;28;20369;-64
2023/06/09 06:45:42;;;;;;;9.75;8.77;;;;;;;;;;5113811;28;20014;-64
2023/06/09 06:48:07;;;;;;;18.80;10.00;;;;;;;;;;5114278;28;20088;-64
2023/06/09 06:50:33;;;;;;;11.50;10.20;;;;;;;;;;5096862;28;20285;-64
2023/06/09 06:52:58;;;;;;;9.77;8.20;;;;;;;;;;5093597;28;20274;-64
2023/06/09 06:55:24;;;;;;;10.82;8.57;;;;;;;;;;5096171;28;20066;-64
2023/06/09 06:58:14;;;;;;;10.05;8.75;;;;;;;;;;5114330;28;20024;-64
2023/06/09 07:00:41;;;;;;;7.97;6.97;;;;;;;;;;5104182;28;20036;-65
2023/06/09 07:03:08;;;;;;;11.00;8.10;;;;;;;;;;5112266;28;20032;-64
2023/06/09 07:05:34;;;;;;;10.93;8.13;;;;;;;;;;5113831;28;20482;-64
2023/06/09 07:07:59;;;;;;;11.23;7.18;;;;;;;;;;5111383;28;20065;-64
2023/06/09 07:10:24;;;;;;;15.10;6.82;;;;;;;;;;5103328;28;20031;-64
2023/06/09 07:12:50;;;;;;;10.13;6.53;;;;;;;;;;5094014;28;20024;-65
2023/06/09 07:15:15;;;;;;;13.55;8.07;;;;;;;;;;5093581;28;20518;-64
2023/06/09 07:17:40;;;;;;;6.93;6.23;;;;;;;;;;5094124;28;20103;-64
2023/06/09 07:20:06;;;;;;;11.87;7.37;;;;;;;;;;5094249;28;20274;-64
2023/06/09 07:22:33;;;;;;;16.45;7.40;;;;;;;;;;5097674;28;20294;-64
2023/06/09 07:24:59;;;;;;;9.98;6.50;;;;;;;;;;5098365;28;20540;-65
2023/06/09 07:27:24;;;;;;;7.88;6.13;;;;;;;;;;5094272;28;20138;-63
2023/06/09 07:29:50;;;;;;;6.95;6.13;;;;;;;;;;5092910;28;20024;-63
2023/06/09 07:32:15;;;;;;;9.20;6.28;;;;;;;;;;5093234;28;20165;-63
2023/06/09 07:34:40;;;;;;;9.00;7.00;;;;;;;;;;5093783;28;20062;-63
2023/06/09 07:37:06;;;;;;;11.25;5.90;;;;;;;;;;5094953;28;20012;-63
2023/06/09 07:39:31;;;;;;;9.30;6.13;;;;;;;;;;5107304;28;20040;-64
2023/06/09 07:41:56;;;;;;;7.88;6.55;;;;;;;;;;5094944;28;20038;-63
2023/06/09 07:44:22;;;;;;;8.63;6.47;;;;;;;;;;5113260;28;20031;-63
2023/06/09 07:46:47;;;;;;;7.22;6.05;;;;;;;;;;5113382;28;20028;-64
2023/06/09 07:49:14;;;;;;;8.70;5.72;;;;;;;;;;5103979;28;20027;-64
2023/06/09 07:51:41;;;;;;;7.60;5.03;;;;;;;;;;5099177;28;20036;-64
2023/06/09 07:54:06;;;;;;;6.80;5.43;;;;;;;;;;5093319;28;20133;-64
2023/06/09 07:56:32;;;;;;;10.77;6.65;;;;;;;;;;5106615;28;20134;-64
2023/06/09 07:59:00;;;;;;;7.25;5.43;;;;;;;;;;5104013;28;20030;-63
2023/06/09 08:01:25;;;;;;;16.73;5.80;;;;;;;;;;5093913;28;20069;-63
2023/06/09 08:03:51;;;;;;;6.22;5.35;;;;;;;;;;5093658;28;20424;-64
2023/06/09 08:06:16;;;;;;;6.63;5.43;;;;;;;;;;5092654;28;20024;-64
2023/06/09 08:08:42;;;;;;;8.68;6.07;;;;;;;;;;5101368;28;20026;-63
2023/06/09 08:11:07;;;;;;;7.82;5.40;;;;;;;;;;5096372;28;20462;-63
2023/06/09 08:13:32;;;;;;;9.03;5.30;;;;;;;;;;5093610;28;20020;-63
2023/06/09 08:15:57;;;;;;;7.87;5.53;;;;;;;;;;5107824;28;20345;-64
2023/06/09 08:18:23;;;;;;;7.43;5.53;;;;;;;;;;5103651;28;20380;-63
2023/06/09 08:20:48;;;;;;;7.40;5.23;;;;;;;;;;5094667;28;20278;-63
2023/06/09 08:23:13;;;;;;;5.77;5.07;;;;;;;;;;5112536;28;20778;-63
2023/06/09 08:25:38;;;;;;;7.80;5.10;;;;;;;;;;5111675;28;20265;-63
2023/06/09 08:28:04;;;;;;;5.40;4.72;;;;;;;;;;5112197;28;20036;-63
2023/06/09 08:30:29;;;;;;;5.80;4.90;;;;;;;;;;5110128;28;20385;-63
2023/06/09 08:32:55;;;;;;;7.60;5.95;;;;;;;;;;5094307;28;20454;-63
2023/06/09 08:35:21;;;;;;;8.65;5.68;;;;;;;;;;5096268;28;20070;-63
2023/06/09 08:37:47;;;;;;;5.82;4.88;;;;;;;;;;5094940;28;20024;-63
2023/06/09 08:40:12;;;;;;;7.30;5.22;;;;;;;;;;5107397;28;20028;-62
2023/06/09 08:42:38;;;;;;;7.70;4.93;;;;;;;;;;5093051;28;20069;-63
2023/06/09 08:45:05;;;;;;;6.55;5.40;;;;;;;;;;5092030;28;20032;-62
2023/06/09 08:47:32;;;;;;;6.90;5.60;;;;;;;;;;5092552;28;20020;-62
2023/06/09 08:49:58;;;;;;;5.35;4.75;;;;;;;;;;5105171;28;20044;-63
2023/06/09 08:52:24;;;;;;;6.57;5.07;;;;;;;;;;5112021;28;20110;-63
2023/06/09 08:54:50;;;;;;;8.75;4.80;;;;;;;;;;5108928;28;20593;-63
2023/06/09 08:57:15;;;;;;;7.18;5.13;;;;;;;;;;5112163;28;20027;-63
2023/06/09 08:59:41;;;;;;;5.47;4.32;;;;;;;;;;5111359;28;20036;-63
2023/06/09 09:02:08;;;;;;;6.43;4.78;;;;;;;;;;5106916;28;20027;-64
2023/06/09 09:04:33;;;;;;;5.55;4.18;;;;;;;;;;5096819;28;20039;-63
2023/06/09 09:06:58;;;;;;;5.07;4.10;;;;;;;;;;5098691;28;20028;-63
2023/06/09 09:09:24;;;;;;;5.63;4.80;;;;;;;;;;5101283;28;20024;-63
2023/06/09 09:11:51;;;;;;;6.23;4.13;;;;;;;;;;5092163;28;20042;-63
2023/06/09 09:14:16;;;;;;;7.70;5.25;;;;;;;;;;5093172;28;20795;-63
2023/06/09 09:16:41;;;;;;;7.27;5.10;;;;;;;;;;5104842;28;20040;-63
2023/06/09 09:19:06;;;;;;;7.80;5.00;;;;;;;;;;5095099;28;20757;-64
2023/06/09 09:21:37;;;;;;;6.70;5.07;;;;;;;;;;5108596;28;20024;-64
2023/06/09 09:24:06;;;;;;;5.63;4.65;;;;;;;;;;5103252;28;20301;-65
2023/06/09 09:26:31;;;;;;;10.07;4.45;;;;;;;;;;5107690;28;20028;-64
2023/06/09 09:28:59;;;;;;;7.57;4.65;;;;;;;;;;5105624;28;20089;-65
2023/06/09 09:31:35;;;;;;;5.85;4.47;;;;;;;;;;5100204;28;20057;-64
2023/06/09 09:34:01;;;;;;;6.55;4.57;;;;;;;;;;5099586;28;20483;-64
2023/06/09 09:36:26;;;;;;;8.50;5.00;;;;;;;;;;5103565;28;20019;-65
2023/06/09 09:38:53;;;;;;;5.72;4.50;;;;;;;;;;5102309;28;20507;-64
2023/06/09 09:41:19;;;;;;;6.25;4.90;;;;;;;;;;5111012;28;20382;-64
2023/06/09 09:43:45;;;;;;;5.93;5.32;;;;;;;;;;5108336;28;20028;-64
2023/06/09 09:46:10;;;;;;;7.25;5.10;;;;;;;;;;5108414;28;20022;-64
2023/06/09 09:48:39;;;;;;;7.87;4.70;;;;;;;;;;5106234;28;20119;-64
2023/06/09 09:51:05;;;;;;;6.03;5.22;;;;;;;;;;5108577;28;20361;-65
2023/06/09 09:53:30;;;;;;;7.35;5.28;;;;;;;;;;5106227;28;20478;-64
2023/06/09 09:55:56;;;;;;;9.33;5.30;;;;;;;;;;5109308;28;20024;-65
2023/06/09 09:58:29;;;;;;;6.00;4.57;;;;;;;;;;5106801;28;20349;-64
2023/06/09 10:00:57;;;;;;;5.05;4.47;;;;;;;;;;5090875;28;20412;-65
2023/06/09 10:03:23;;;;;;;6.32;4.88;;;;;;;;;;5107298;28;20439;-65
2023/06/09 10:05:49;;;;;;;7.00;5.07;;;;;;;;;;5105691;28;20120;-65
2023/06/09 10:08:21;;;;;;;6.07;4.45;;;;;;;;;;5105599;28;20470;-65
2023/06/09 10:10:47;;;;;;;7.10;5.20;;;;;;;;;;5102286;28;20464;-65
2023/06/09 10:13:12;;;;;;;8.15;4.47;;;;;;;;;;5109622;28;20028;-65
2023/06/09 10:15:47;;;;;;;5.65;4.82;;;;;;;;;;5112742;28;20061;-65
2023/06/09 10:18:13;;;;;;;5.45;4.78;;;;;;;;;;5103983;28;20174;-65
2023/06/09 10:20:40;;;;;;;5.43;4.57;;;;;;;;;;5105549;28;20115;-65
2023/06/09 10:23:08;;;;;;;6.57;5.45;;;;;;;;;;5103571;28;20067;-65
2023/06/09 10:25:34;;;;;;;8.65;5.45;;;;;;;;;;5105408;28;20032;-65
2023/06/09 10:27:59;;;;;;;7.10;5.03;;;;;;;;;;5102366;28;20032;-65
2023/06/09 10:30:24;;;;;;;6.65;4.72;;;;;;;;;;5098798;28;20455;-65
2023/06/09 10:32:53;;;;;;;7.07;4.50;;;;;;;;;;5102694;28;20028;-65
2023/06/09 10:35:20;;;;;;;6.35;4.80;;;;;;;;;;5098116;28;20023;-65
2023/06/09 10:37:47;;;;;;;11.65;5.43;;;;;;;;;;5104377;28;20446;-65
2023/06/09 10:40:21;;;;;;;7.28;5.43;;;;;;;;;;5108791;28;20119;-65
2023/06/09 10:42:50;;;;;;;8.63;5.20;;;;;;;;;;5115031;28;20093;-66
2023/06/09 10:45:19;;;;;;;7.15;4.40;;;;;;;;;;5114289;28;20034;-65
2023/06/09 10:47:45;;;;;;;4.93;4.32;;;;;;;;;;5101909;28;20038;-64
2023/06/09 10:50:40;;;;;;;12.40;5.07;;;;;;;;;;5100660;28;20028;-64
2023/06/09 10:53:05;;;;;;;;;;;;;;;;;;5073145;28;20067;-65
2023/06/09 10:55:30;;;;;;;8.57;4.55;;;;;;;;;;5095037;28;19955;-66
2023/06/09 10:57:56;;;;;;;7.65;4.70;;;;;;;;;;5108341;28;20027;-65
2023/06/09 11:00:22;;;;;;;7.18;5.28;;;;;;;;;;5093712;28;20028;-65
2023/06/09 11:02:52;;;;;;;9.20;5.07;;;;;;;;;;5107618;28;20050;-65
2023/06/09 11:05:18;;;;;;;9.23;5.18;;;;;;;;;;5094869;28;20020;-64
2023/06/09 11:07:44;;;;;;;5.93;4.75;;;;;;;;;;5094430;28;20035;-65
2023/06/09 11:10:11;;;;;;;9.13;4.50;;;;;;;;;;5093861;28;20024;-65
2023/06/09 11:12:36;;;;;;;6.03;4.65;;;;;;;;;;5107561;28;20031;-65
2023/06/09 11:15:02;;;;;;;10.07;5.30;;;;;;;;;;5094285;28;20024;-65
2023/06/09 11:17:39;;;;;;;11.73;4.95;;;;;;;;;;5094591;28;20040;-64
2023/06/09 11:20:11;;;;;;;8.23;5.07;;;;;;;;;;5094653;28;20056;-64
2023/06/09 11:22:43;;;;;;;5.28;4.72;;;;;;;;;;5094991;28;20102;-64
2023/06/09 11:25:30;;;;;;;7.43;4.47;;;;;;;;;;5094436;28;20024;-65
2023/06/09 11:27:55;;;;;;;6.85;5.30;;;;;;;;;;5089628;28;20431;-65
2023/06/09 11:30:22;;;;;;;7.15;4.88;;;;;;;;;;5094128;28;20105;-65
2023/06/09 11:32:47;;;;;;;6.10;4.90;;;;;;;;;;5094501;28;20363;-66
2023/06/09 11:35:46;;;;;;;9.13;5.00;;;;;;;;;;5095170;28;20043;-65
2023/06/09 11:38:11;;;;;;;7.75;4.93;;;;;;;;;;5093382;28;20305;-65
2023/06/09 11:40:37;;;;;;;7.47;4.93;;;;;;;;;;5108251;28;20034;-65
2023/06/09 11:43:07;;;;;;;8.93;4.93;;;;;;;;;;5093150;28;20027;-65
2023/06/09 11:45:32;;;;;;;8.98;4.88;;;;;;;;;;5092926;28;20028;-65
2023/06/09 11:47:59;;;;;;;8.25;4.95;;;;;;;;;;5093055;28;20089;-65
2023/06/09 11:50:25;;;;;;;10.95;5.10;;;;;;;;;;5106714;28;20019;-65
2023/06/09 11:53:04;;;;;;;9.55;5.10;;;;;;;;;;5093721;28;20027;-65
2023/06/09 11:55:29;;;;;;;10.77;5.00;;;;;;;;;;5096358;28;20039;-65
2023/06/09 11:57:54;;;;;;;8.43;5.22;;;;;;;;;;5107085;28;20026;-62
2023/06/09 12:00:25;;;;;;;5.60;5.07;;;;;;;;;;5092723;28;20028;-62
2023/06/09 12:02:50;;;;;;;10.90;5.25;;;;;;;;;;5092831;28;20262;-62
2023/06/09 12:05:16;;;;;;;7.27;4.70;;;;;;;;;;5092892;28;20520;-63
2023/06/09 12:07:44;;;;;;;10.88;5.20;;;;;;;;;;5093470;28;20266;-62
2023/06/09 12:10:10;;;;;;;13.32;4.72;;;;;;;;;;5100728;28;20069;-64
2023/06/09 12:12:42;;;;;;;6.82;4.40;;;;;;;;;;5098365;28;20024;-63
2023/06/09 12:15:09;;;;;;;6.57;4.30;;;;;;;;;;5093347;28;20024;-64
2023/06/09 12:17:34;;;;;;;7.50;5.15;;;;;;;;;;5094194;28;20534;-64
2023/06/09 12:20:18;;;;;;;9.57;5.00;;;;;;;;;;5093218;28;20023;-63
2023/06/09 12:22:43;;;;;;;6.35;5.10;;;;;;;;;;5094099;28;20024;-64
2023/06/09 12:25:19;;;;;;;8.53;4.57;;;;;;;;;;5103990;28;20381;-64
2023/06/09 12:27:44;;;;;;;8.43;4.88;;;;;;;;;;5094431;28;20558;-65
2023/06/09 12:30:10;;;;;;;7.77;4.87;;;;;;;;;;5093252;28;20114;-64
2023/06/09 12:32:35;;;;;;;7.10;4.60;;;;;;;;;;5099545;28;20028;-64
2023/06/09 12:35:03;;;;;;;8.20;5.20;;;;;;;;;;5094726;28;20489;-64
2023/06/09 12:37:30;;;;;;;4.88;4.35;;;;;;;;;;5112125;28;20023;-63
2023/06/09 12:40:03;;;;;;;8.38;4.82;;;;;;;;;;5109066;28;20466;-65
2023/06/09 12:42:28;;;;;;;8.30;4.70;;;;;;;;;;5111898;28;20474;-65
2023/06/09 12:44:57;;;;;;;7.40;5.30;;;;;;;;;;5111590;28;20051;-64
2023/06/09 12:47:22;;;;;;;7.22;4.80;;;;;;;;;;5111484;28;20537;-63
2023/06/09 12:49:47;;;;;;;6.30;4.80;;;;;;;;;;5107767;28;20035;-63
2023/06/09 12:52:12;;;;;;;10.40;5.30;;;;;;;;;;5111520;28;20446;-64
2023/06/09 12:54:38;;;;;;;5.47;4.60;;;;;;;;;;5110989;28;20484;-64
2023/06/09 12:57:03;;;;;;;8.10;5.37;;;;;;;;;;5111718;28;20557;-63
2023/06/09 12:59:28;;;;;;;8.23;5.68;;;;;;;;;;5111316;28;20314;-64
2023/06/09 13:01:54;;;;;;;8.33;5.13;;;;;;;;;;5110112;28;20023;-63
2023/06/09 13:04:19;;;;;;;11.55;5.15;;;;;;;;;;5110834;28;20044;-64
2023/06/09 13:06:45;;;;;;;9.43;4.78;;;;;;;;;;5109809;28;20103;-64
2023/06/09 13:09:10;;;;;;;6.40;4.97;;;;;;;;;;5110614;28;20119;-64
2023/06/09 13:11:36;;;;;;;10.75;4.50;;;;;;;;;;5109374;28;20110;-64
2023/06/09 13:14:01;;;;;;;15.55;4.97;;;;;;;;;;5101672;28;20059;-63
2023/06/09 13:16:26;;;;;;;11.13;4.67;;;;;;;;;;5096167;28;20078;-63
2023/06/09 13:18:51;;;;;;;5.63;4.30;;;;;;;;;;5094392;28;20016;-64
2023/06/09 13:21:17;;;;;;;6.72;4.47;;;;;;;;;;5097028;28;20063;-64
2023/06/09 13:23:42;;;;;;;7.80;5.40;;;;;;;;;;5099094;28;20028;-65
2023/06/09 13:26:07;;;;;;;9.05;4.45;;;;;;;;;;5097428;28;20775;-64
2023/06/09 13:28:33;;;;;;;8.55;5.15;;;;;;;;;;5094883;28;20096;-65
2023/06/09 13:30:58;;;;;;;8.70;4.87;;;;;;;;;;5097697;28;20051;-64
2023/06/09 13:33:23;;;;;;;7.30;5.63;;;;;;;;;;5093699;28;20475;-64
2023/06/09 13:35:48;;;;;;;6.03;4.70;;;;;;;;;;5096621;28;20281;-64
2023/06/09 13:38:15;;;;;;;7.90;5.47;;;;;;;;;;5093873;28;20625;-65
2023/06/09 13:40:44;;;;;;;7.38;5.22;;;;;;;;;;5108033;28;20522;-64
2023/06/09 13:43:12;;;;;;;5.15;4.32;;;;;;;;;;5105217;28;20034;-64
2023/06/09 13:45:37;;;;;;;10.05;4.93;;;;;;;;;;5109009;28;20046;-64
2023/06/09 13:48:03;;;;;;;5.93;4.60;;;;;;;;;;5097738;28;20421;-64
2023/06/09 13:50:28;;;;;;;8.90;4.93;;;;;;;;;;5097934;28;20080;-63
2023/06/09 13:52:54;;;;;;;8.45;5.53;;;;;;;;;;5094257;28;20016;-65
2023/06/09 13:55:19;;;;;;;8.40;4.83;;;;;;;;;;5096216;28;20028;-64
2023/06/09 13:57:44;;;;;;;9.40;4.43;;;;;;;;;;5111446;28;20171;-64
2023/06/09 14:00:11;;;;;;;5.57;4.50;;;;;;;;;;5093209;28;20276;-64
2023/06/09 14:02:38;;;;;;;6.18;4.28;;;;;;;;;;5092352;28;20277;-64
2023/06/09 14:05:04;;;;;;;50.15;6.50;;;;;;;;;;5095336;28;20157;-64
2023/06/09 14:07:29;;;;;;;6.03;3.60;;;;;;;;;;5103580;28;20480;-64
2023/06/09 14:09:55;;;;;;;10.93;5.13;;;;;;;;;;5096809;28;20385;-64
2023/06/09 14:12:21;;;;;;;7.82;4.45;;;;;;;;;;5097343;28;20311;-65
2023/06/09 14:14:46;;;;;;;7.57;4.20;;;;;;;;;;5094676;28;20046;-64
2023/06/09 14:17:11;;;;;;;6.73;3.90;;;;;;;;;;5093421;28;20024;-64
2023/06/09 14:19:37;;;;;;;10.80;4.83;;;;;;;;;;5095083;28;20302;-64
2023/06/09 14:22:05;;;;;;;5.70;4.75;;;;;;;;;;5103768;28;20790;-64
2023/06/09 14:24:33;;;;;;;5.28;3.83;;;;;;;;;;5098889;28;20385;-64
2023/06/09 14:26:59;;;;;;;6.82;4.03;;;;;;;;;;5099887;28;20082;-64
2023/06/09 14:29:24;;;;;;;10.05;4.10;;;;;;;;;;5093601;28;20066;-65